Time;durP1;ratioP1;P1;durP2;ratioP2;P2;SDS_P1;SDS_P2;PMS_P1;PMS_P2;Temp;Humidity;BMP_temperature;BMP_pressure;BME280_temperature;BME280_humidity;BME280_pressure;Samples;Min_cycle;Max_cycle;Signal;HPM_P1;HPM_P2
2021/05/23 00:02:22;;;;;;;1.77;1.02;;;22.30;44.70;;;;;;5055235;28;20052;-59
2021/05/23 00:04:48;;;;;;;1.33;0.80;;;22.30;44.60;;;;;;5047980;28;20029;-56
2021/05/23 00:07:15;;;;;;;2.17;1.00;;;22.30;44.60;;;;;;5055360;28;20035;-56
2021/05/23 00:09:41;;;;;;;2.00;1.00;;;22.30;44.70;;;;;;5064512;28;20037;-58
2021/05/23 00:12:10;;;;;;;1.27;0.90;;;22.30;44.60;;;;;;5052042;28;20201;-57
2021/05/23 00:14:35;;;;;;;2.05;1.05;;;22.20;44.60;;;;;;5055888;28;20025;-60
2021/05/23 00:17:01;;;;;;;2.33;1.30;;;22.20;44.60;;;;;;5048562;28;20035;-57
2021/05/23 00:19:27;;;;;;;1.98;0.90;;;22.20;44.60;;;;;;5047026;28;20029;-60
2021/05/23 00:21:52;;;;;;;1.67;1.00;;;22.20;44.60;;;;;;5058179;28;20210;-58
2021/05/23 00:24:18;;;;;;;2.10;1.00;;;22.20;44.60;;;;;;5070343;28;20379;-58
2021/05/23 00:26:44;;;;;;;2.55;1.17;;;22.20;44.60;;;;;;5082974;28;20035;-57
2021/05/23 00:29:09;;;;;;;1.30;0.80;;;22.20;44.60;;;;;;5067390;28;20944;-57
2021/05/23 00:31:35;;;;;;;1.20;1.10;;;22.20;44.60;;;;;;5066422;28;20062;-59
2021/05/23 00:34:01;;;;;;;1.65;0.90;;;22.20;44.60;;;;;;5068195;28;20485;-57
2021/05/23 00:36:27;;;;;;;1.75;1.00;;;22.20;44.60;;;;;;5048917;28;20029;-57
2021/05/23 00:38:53;;;;;;;1.48;1.00;;;22.20;44.60;;;;;;5047630;28;20032;-55
2021/05/23 00:41:19;;;;;;;2.63;1.00;;;22.20;44.60;;;;;;5058823;28;20028;-57
2021/05/23 00:43:45;;;;;;;1.60;1.10;;;22.20;44.60;;;;;;5067380;28;20090;-58
2021/05/23 00:46:11;;;;;;;1.55;0.90;;;22.20;44.60;;;;;;5068364;28;20430;-59
2021/05/23 00:48:36;;;;;;;1.33;0.90;;;22.20;44.60;;;;;;5063411;28;20100;-60
2021/05/23 00:51:02;;;;;;;1.75;0.93;;;22.20;44.60;;;;;;5047300;28;20025;-58
2021/05/23 00:53:27;;;;;;;1.98;1.00;;;22.20;44.60;;;;;;5051033;28;20398;-58
2021/05/23 00:55:53;;;;;;;1.20;0.82;;;22.20;44.60;;;;;;5067914;28;20040;-56
2021/05/23 00:58:20;;;;;;;1.85;1.15;;;22.20;45.10;;;;;;5063096;28;20036;-58
2021/05/23 01:00:46;;;;;;;1.58;0.80;;;22.20;44.60;;;;;;5056151;28;20150;-59
2021/05/23 01:03:30;;;;;;;1.58;0.90;;;22.10;44.60;;;;;;5052000;28;20029;-59
2021/05/23 01:05:57;;;;;;;1.42;0.88;;;22.10;44.60;;;;;;5066610;28;20032;-60
2021/05/23 01:08:24;;;;;;;1.25;0.90;;;22.20;44.60;;;;;;5067286;28;20016;-60
2021/05/23 01:10:52;;;;;;;1.40;0.80;;;22.10;44.60;;;;;;5067506;28;20447;-60
2021/05/23 01:16:09;;;;;;;1.35;0.90;;;22.10;44.50;;;;;;5067710;28;20028;-60
2021/05/23 01:18:53;;;;;;;1.83;1.02;;;22.10;44.60;;;;;;5067502;28;20032;-61
2021/05/23 01:21:20;;;;;;;1.80;0.98;;;22.10;44.60;;;;;;5051128;28;20387;-60
2021/05/23 01:23:54;;;;;;;2.28;0.90;;;22.10;44.60;;;;;;5047094;28;20052;-60
2021/05/23 01:26:25;;;;;;;1.50;0.98;;;22.10;44.60;;;;;;5051501;28;20136;-61
2021/05/23 01:28:55;;;;;;;1.13;0.80;;;22.10;44.60;;;;;;5050244;28;20041;-59
2021/05/23 01:31:22;;;;;;;1.27;0.90;;;22.10;44.60;;;;;;5046131;28;20029;-60
2021/05/23 01:33:52;;;;;;;1.40;0.80;;;22.10;44.60;;;;;;5059695;28;20481;-61
2021/05/23 01:36:20;;;;;;;2.40;0.95;;;22.10;44.60;;;;;;5047459;28;20093;-59
2021/05/23 01:38:46;;;;;;;1.30;0.93;;;22.10;44.50;;;;;;5063067;28;20595;-60
2021/05/23 01:41:11;;;;;;;1.35;0.80;;;22.10;44.60;;;;;;5067451;28;20154;-62
2021/05/23 01:43:38;;;;;;;0.98;0.70;;;22.10;44.50;;;;;;5060222;28;20029;-60
2021/05/23 01:46:05;;;;;;;1.55;0.90;;;22.10;44.60;;;;;;5060302;28;20035;-60
2021/05/23 01:48:33;;;;;;;1.35;0.90;;;22.10;44.60;;;;;;5066850;28;20020;-60
2021/05/23 01:50:58;;;;;;;1.27;0.80;;;22.10;44.60;;;;;;5066110;28;20020;-59
2021/05/23 01:53:24;;;;;;;1.55;0.93;;;22.10;44.50;;;;;;5066124;28;20512;-62
2021/05/23 01:55:50;;;;;;;2.67;0.85;;;22.10;44.50;;;;;;5063882;28;20082;-60
2021/05/23 01:58:16;;;;;;;1.60;0.80;;;22.10;44.60;;;;;;5067103;28;20086;-61
2021/05/23 02:00:45;;;;;;;1.02;0.70;;;22.00;44.50;;;;;;5064975;28;20032;-60
2021/05/23 02:03:13;;;;;;;1.50;0.80;;;22.10;44.60;;;;;;5060933;28;20032;-63
2021/05/23 02:05:41;;;;;;;1.50;1.00;;;22.10;44.60;;;;;;5066169;28;20515;-63
2021/05/23 02:08:08;;;;;;;1.58;0.90;;;22.00;44.50;;;;;;5067293;28;20415;-60
2021/05/23 02:10:34;;;;;;;1.38;0.80;;;22.10;44.60;;;;;;5066809;28;20630;-62
2021/05/23 02:13:02;;;;;;;1.15;0.75;;;22.00;44.50;;;;;;5065995;28;20415;-62
2021/05/23 02:15:28;;;;;;;1.40;0.80;;;22.10;44.60;;;;;;5066500;28;20029;-61
2021/05/23 02:17:54;;;;;;;1.38;0.77;;;22.10;44.60;;;;;;5067214;28;20142;-61
2021/05/23 02:20:24;;;;;;;1.45;0.88;;;22.00;44.50;;;;;;5065204;28;20096;-63
2021/05/23 02:22:51;;;;;;;0.88;0.65;;;22.00;44.50;;;;;;5066303;28;20081;-61
2021/05/23 02:25:20;;;;;;;1.00;0.70;;;22.00;44.50;;;;;;5066553;28;20037;-62
2021/05/23 02:27:51;;;;;;;1.50;0.82;;;22.00;44.50;;;;;;5059357;28;20517;-64
2021/05/23 02:30:18;;;;;;;0.70;0.70;;;22.00;44.50;;;;;;5045448;28;20025;-61
2021/05/23 02:32:45;;;;;;;1.00;0.70;;;22.00;44.50;;;;;;5045963;28;20033;-63
2021/05/23 02:35:13;;;;;;;1.35;0.80;;;22.00;44.50;;;;;;5045855;28;20110;-63
2021/05/23 02:37:40;;;;;;;2.45;0.80;;;22.00;44.50;;;;;;5047090;28;20100;-62
2021/05/23 02:40:12;;;;;;;0.98;0.60;;;22.00;44.50;;;;;;5046068;28;20036;-63
2021/05/23 02:42:37;;;;;;;0.95;0.68;;;22.00;44.50;;;;;;5046271;28;20117;-61
2021/05/23 02:45:08;;;;;;;1.17;0.80;;;22.00;44.50;;;;;;5049863;28;20111;-61
2021/05/23 02:47:34;;;;;;;1.25;0.82;;;22.00;44.50;;;;;;5070644;28;20016;-60
2021/05/23 02:50:02;;;;;;;1.08;0.80;;;22.00;44.50;;;;;;5069733;28;20117;-62
2021/05/23 02:52:28;;;;;;;1.42;0.80;;;22.00;44.50;;;;;;5065878;28;20021;-60
2021/05/23 02:54:54;;;;;;;1.05;0.70;;;22.00;44.50;;;;;;5069463;28;20040;-61
2021/05/23 02:57:20;;;;;;;1.35;0.60;;;22.00;44.60;;;;;;5069861;28;20072;-60
2021/05/23 02:59:45;;;;;;;1.48;0.80;;;22.00;44.60;;;;;;5069641;28;20029;-63
2021/05/23 03:02:11;;;;;;;1.10;0.73;;;22.00;44.50;;;;;;5056957;28;20037;-61
2021/05/23 03:04:37;;;;;;;0.90;0.70;;;21.90;44.50;;;;;;5068816;28;20024;-62
2021/05/23 03:07:03;;;;;;;0.98;0.80;;;21.90;44.50;;;;;;5069114;28;20016;-62
2021/05/23 03:09:29;;;;;;;1.33;0.70;;;21.90;44.50;;;;;;5069495;28;20103;-63
2021/05/23 03:11:55;;;;;;;0.95;0.70;;;21.90;44.50;;;;;;5069370;28;20091;-62
2021/05/23 03:14:21;;;;;;;1.13;0.65;;;21.90;44.50;;;;;;5066984;28;20108;-63
2021/05/23 03:16:46;;;;;;;1.33;0.70;;;21.90;44.50;;;;;;5067035;28;20111;-62
2021/05/23 03:19:12;;;;;;;1.08;0.80;;;21.90;44.50;;;;;;5068903;28;20158;-62
2021/05/23 03:21:39;;;;;;;0.65;0.57;;;21.90;44.50;;;;;;5068420;28;20024;-62
2021/05/23 03:24:04;;;;;;;1.88;0.70;;;21.90;44.50;;;;;;5069124;28;20753;-62
2021/05/23 03:26:31;;;;;;;1.13;0.70;;;21.90;44.50;;;;;;5069448;28;20032;-62
2021/05/23 03:28:57;;;;;;;1.00;0.70;;;21.90;44.50;;;;;;5068842;28;20033;-62
2021/05/23 03:31:22;;;;;;;1.38;0.80;;;21.90;44.50;;;;;;5068314;28;20345;-63
2021/05/23 03:33:48;;;;;;;1.00;0.70;;;21.90;44.50;;;;;;5068232;28;20113;-61
2021/05/23 03:36:14;;;;;;;1.02;0.65;;;21.90;44.50;;;;;;5068940;28;20202;-61
2021/05/23 03:38:45;;;;;;;0.93;0.65;;;21.90;44.50;;;;;;5069461;28;20443;-60
2021/05/23 03:41:12;;;;;;;1.42;0.70;;;21.80;44.50;;;;;;5068854;28;20036;-61
2021/05/23 03:43:39;;;;;;;1.25;0.73;;;21.90;44.50;;;;;;5057475;28;20033;-62
2021/05/23 03:46:05;;;;;;;1.10;0.70;;;21.80;44.50;;;;;;5048918;28;20478;-62
2021/05/23 03:48:30;;;;;;;0.98;0.70;;;21.90;44.50;;;;;;5049441;28;20060;-61
2021/05/23 03:50:56;;;;;;;1.02;0.70;;;21.90;44.50;;;;;;5062606;28;20814;-62
2021/05/23 03:53:22;;;;;;;0.93;0.70;;;21.90;45.10;;;;;;5061876;28;20021;-62
2021/05/23 03:55:49;;;;;;;1.15;0.70;;;21.90;44.50;;;;;;5068963;28;20028;-62
2021/05/23 03:58:15;;;;;;;1.50;0.80;;;21.90;44.60;;;;;;5067163;28;20044;-63
2021/05/23 04:00:41;;;;;;;0.90;0.60;;;21.90;44.60;;;;;;5064014;28;20065;-61
2021/05/23 04:03:07;;;;;;;1.00;0.70;;;21.80;44.50;;;;;;5062619;28;20060;-63
2021/05/23 04:05:32;;;;;;;0.80;0.60;;;21.90;44.50;;;;;;5068203;28;20020;-63
2021/05/23 04:07:59;;;;;;;1.38;0.73;;;21.80;44.50;;;;;;5056850;28;20036;-63
2021/05/23 04:10:30;;;;;;;1.15;0.70;;;21.80;44.60;;;;;;5059504;28;20032;-63
2021/05/23 04:12:57;;;;;;;0.82;0.63;;;21.80;44.50;;;;;;5068204;28;20132;-62
2021/05/23 04:15:23;;;;;;;0.93;0.60;;;21.80;44.50;;;;;;5059882;28;20035;-63
2021/05/23 04:17:49;;;;;;;0.93;0.70;;;21.80;44.50;;;;;;5068673;28;20395;-60
2021/05/23 04:20:20;;;;;;;1.48;0.70;;;21.80;44.60;;;;;;5067335;28;20443;-60
2021/05/23 04:22:47;;;;;;;1.35;0.70;;;21.80;45.10;;;;;;5066903;28;20452;-63
2021/05/23 04:25:15;;;;;;;0.60;0.60;;;21.80;44.60;;;;;;5061723;28;20067;-60
2021/05/23 04:27:43;;;;;;;1.05;0.70;;;21.80;44.60;;;;;;5064590;28;20075;-60
2021/05/23 04:30:10;;;;;;;0.82;0.68;;;21.80;44.60;;;;;;5066833;28;20079;-60
2021/05/23 04:32:36;;;;;;;0.77;0.60;;;21.80;44.60;;;;;;5064433;28;20067;-61
2021/05/23 04:35:03;;;;;;;0.93;0.70;;;21.80;44.60;;;;;;5067580;28;20429;-60
2021/05/23 04:37:29;;;;;;;0.90;0.60;;;21.80;44.60;;;;;;5062656;28;20345;-60
2021/05/23 04:39:54;;;;;;;1.15;0.70;;;21.80;44.60;;;;;;5056264;28;20124;-64
2021/05/23 04:42:20;;;;;;;0.98;0.70;;;21.80;44.60;;;;;;5063591;28;20471;-61
2021/05/23 04:44:45;;;;;;;1.23;0.80;;;21.70;44.50;;;;;;5067465;28;20067;-60
2021/05/23 04:47:11;;;;;;;1.00;0.70;;;21.70;44.50;;;;;;5067752;28;20084;-61
2021/05/23 04:49:39;;;;;;;1.35;0.70;;;21.70;44.50;;;;;;5067181;28;20020;-61
2021/05/23 04:52:10;;;;;;;1.38;0.77;;;21.80;44.60;;;;;;5066990;28;20028;-61
2021/05/23 04:54:36;;;;;;;1.00;0.60;;;21.70;44.50;;;;;;5068054;28;20364;-63
2021/05/23 04:57:03;;;;;;;0.70;0.65;;;21.70;44.50;;;;;;5058753;28;20112;-62
2021/05/23 04:59:29;;;;;;;0.70;0.57;;;21.70;44.60;;;;;;5067566;28;20076;-63
2021/05/23 05:01:55;;;;;;;0.70;0.70;;;21.70;44.60;;;;;;5062756;28;20075;-62
2021/05/23 05:04:20;;;;;;;0.70;0.57;;;21.70;44.60;;;;;;5067291;28;20534;-61
2021/05/23 05:06:46;;;;;;;0.82;0.60;;;21.70;44.60;;;;;;5067438;28;20035;-60
2021/05/23 05:09:12;;;;;;;0.82;0.60;;;21.70;44.60;;;;;;5066219;28;20111;-64
2021/05/23 05:11:37;;;;;;;0.93;0.60;;;21.70;44.60;;;;;;5067198;28;20043;-63
2021/05/23 05:14:04;;;;;;;0.60;0.60;;;21.70;44.60;;;;;;5067111;28;20044;-61
2021/05/23 05:16:30;;;;;;;0.60;0.50;;;21.70;44.50;;;;;;5066381;28;20068;-61
2021/05/23 05:18:55;;;;;;;1.00;0.60;;;21.70;44.50;;;;;;5065476;28;20067;-61
2021/05/23 05:21:21;;;;;;;0.63;0.60;;;21.70;44.60;;;;;;5057978;28;20028;-61
2021/05/23 05:23:46;;;;;;;0.80;0.60;;;21.70;44.60;;;;;;5066122;28;20043;-60
2021/05/23 05:26:12;;;;;;;1.00;0.70;;;21.70;44.60;;;;;;5053077;28;20033;-61
2021/05/23 05:28:38;;;;;;;1.17;0.70;;;21.70;44.60;;;;;;5046338;28;20025;-62
2021/05/23 05:31:03;;;;;;;0.80;0.60;;;21.70;44.60;;;;;;5063598;28;20032;-63
2021/05/23 05:33:29;;;;;;;0.90;0.55;;;21.70;44.60;;;;;;5067268;28;20024;-61
2021/05/23 05:35:55;;;;;;;0.82;0.63;;;21.70;44.60;;;;;;5064357;28;20119;-62
2021/05/23 05:38:20;;;;;;;1.25;0.75;;;21.70;44.60;;;;;;5066924;28;20032;-61
2021/05/23 05:40:46;;;;;;;1.33;0.70;;;21.70;44.60;;;;;;5067020;28;20051;-61
2021/05/23 05:43:12;;;;;;;0.73;0.60;;;21.70;44.60;;;;;;5067089;28;20032;-61
2021/05/23 05:45:38;;;;;;;0.68;0.50;;;21.60;44.60;;;;;;5059239;28;20100;-61
2021/05/23 05:48:04;;;;;;;0.75;0.60;;;21.70;44.60;;;;;;5045438;28;20032;-63
2021/05/23 05:50:30;;;;;;;0.57;0.50;;;21.60;44.50;;;;;;5060023;28;20438;-62
2021/05/23 05:52:55;;;;;;;0.73;0.60;;;21.60;44.50;;;;;;5066186;28;20032;-62
2021/05/23 05:55:21;;;;;;;0.82;0.60;;;21.60;44.60;;;;;;5058130;28;20021;-61
2021/05/23 05:57:47;;;;;;;0.65;0.60;;;21.60;44.60;;;;;;5045368;28;20064;-62
2021/05/23 06:00:13;;;;;;;1.10;0.60;;;21.60;44.60;;;;;;5043644;28;20150;-61
2021/05/23 06:02:39;;;;;;;0.68;0.50;;;21.60;44.60;;;;;;5051611;28;20024;-62
2021/05/23 06:05:05;;;;;;;0.80;0.60;;;21.60;44.50;;;;;;5065114;28;20165;-62
2021/05/23 06:07:31;;;;;;;0.43;0.43;;;21.60;44.50;;;;;;5066746;28;20349;-61
2021/05/23 06:09:56;;;;;;;0.52;0.50;;;21.60;44.60;;;;;;5066224;28;20090;-62
2021/05/23 06:12:22;;;;;;;0.82;0.65;;;21.60;44.50;;;;;;5066225;28;20108;-62
2021/05/23 06:14:47;;;;;;;1.40;0.70;;;21.60;44.50;;;;;;5063922;28;20036;-62
2021/05/23 06:17:13;;;;;;;0.80;0.70;;;21.60;44.60;;;;;;5049721;28;20067;-62
2021/05/23 06:19:39;;;;;;;0.70;0.50;;;21.60;44.50;;;;;;5068310;28;20039;-62
2021/05/23 06:22:04;;;;;;;0.60;0.55;;;21.60;44.50;;;;;;5061345;28;20041;-62
2021/05/23 06:24:30;;;;;;;0.88;0.63;;;21.60;44.60;;;;;;5069638;28;20078;-61
2021/05/23 06:26:56;;;;;;;0.52;0.52;;;21.60;45.10;;;;;;5062470;28;20039;-61
2021/05/23 06:29:21;;;;;;;0.70;0.57;;;21.60;44.60;;;;;;5069959;28;20040;-61
2021/05/23 06:31:47;;;;;;;0.70;0.60;;;21.60;44.60;;;;;;5068952;28;20036;-62
2021/05/23 06:34:13;;;;;;;0.50;0.50;;;21.60;44.60;;;;;;5069068;28;20056;-61
2021/05/23 06:36:38;;;;;;;0.60;0.60;;;21.60;44.60;;;;;;5069471;28;20102;-60
2021/05/23 06:39:08;;;;;;;0.80;0.60;;;21.60;44.60;;;;;;5069838;28;20109;-61
2021/05/23 06:41:35;;;;;;;0.68;0.57;;;21.60;44.60;;;;;;5051300;28;20028;-63
2021/05/23 06:44:01;;;;;;;0.50;0.50;;;21.50;44.50;;;;;;5065254;28;20112;-62
2021/05/23 06:46:26;;;;;;;0.50;0.45;;;21.60;44.60;;;;;;5053229;28;20108;-61
2021/05/23 06:48:52;;;;;;;0.50;0.50;;;21.60;44.60;;;;;;5049605;28;20025;-62
2021/05/23 06:51:18;;;;;;;1.08;0.60;;;21.50;44.60;;;;;;5063083;28;20031;-61
2021/05/23 06:53:44;;;;;;;0.63;0.45;;;21.50;44.50;;;;;;5067597;28;20028;-61
2021/05/23 06:56:10;;;;;;;0.50;0.50;;;21.60;44.60;;;;;;5067691;28;20048;-60
2021/05/23 06:58:36;;;;;;;0.82;0.55;;;21.60;44.60;;;;;;5069365;28;20122;-62
2021/05/23 07:01:03;;;;;;;0.60;0.50;;;21.50;44.50;;;;;;5065502;28;20040;-61
2021/05/23 07:03:28;;;;;;;1.08;0.60;;;21.50;44.60;;;;;;5067576;28;20017;-61
2021/05/23 07:05:54;;;;;;;1.00;0.50;;;21.60;44.60;;;;;;5065762;28;20039;-61
2021/05/23 07:08:20;;;;;;;0.52;0.47;;;21.50;44.60;;;;;;5066950;28;20073;-61
2021/05/23 07:10:45;;;;;;;0.68;0.43;;;21.50;44.60;;;;;;5068457;28;20516;-60
2021/05/23 07:13:11;;;;;;;0.50;0.50;;;21.50;44.60;;;;;;5068851;28;20044;-61
2021/05/23 07:15:37;;;;;;;0.57;0.50;;;21.50;44.60;;;;;;5068901;28;20103;-60
2021/05/23 07:18:03;;;;;;;0.63;0.50;;;21.50;44.60;;;;;;5066488;28;20032;-61
2021/05/23 07:20:29;;;;;;;0.57;0.47;;;21.50;44.60;;;;;;5065342;28;20389;-58
2021/05/23 07:22:54;;;;;;;0.57;0.40;;;21.50;44.60;;;;;;5067040;28;20044;-61
2021/05/23 07:25:21;;;;;;;0.73;0.50;;;21.50;44.70;;;;;;5067137;28;20486;-60
2021/05/23 07:27:46;;;;;;;1.05;0.57;;;21.50;44.60;;;;;;5055814;28;20029;-60
2021/05/23 07:30:13;;;;;;;1.05;0.55;;;21.50;44.60;;;;;;5064169;28;20101;-59
2021/05/23 07:32:38;;;;;;;1.20;0.63;;;21.60;44.70;;;;;;5064988;28;20451;-60
2021/05/23 07:35:05;;;;;;;0.95;0.70;;;21.50;44.60;;;;;;5055682;28;20041;-61
2021/05/23 07:37:30;;;;;;;2.25;0.60;;;21.50;44.60;;;;;;5062790;28;20029;-59
2021/05/23 07:39:56;;;;;;;0.75;0.45;;;21.50;44.60;;;;;;5063742;28;20042;-61
2021/05/23 07:42:22;;;;;;;1.02;0.60;;;21.50;44.70;;;;;;5063012;28;20473;-61
2021/05/23 07:44:47;;;;;;;0.77;0.50;;;21.50;44.70;;;;;;5065954;28;20024;-61
2021/05/23 07:47:13;;;;;;;1.23;0.60;;;21.50;44.80;;;;;;5067129;28;20082;-57
2021/05/23 07:49:41;;;;;;;1.10;0.50;;;21.60;44.80;;;;;;5066543;28;20025;-58
2021/05/23 07:52:13;;;;;;;1.30;0.60;;;21.60;44.90;;;;;;5064358;28;20447;-61
2021/05/23 07:54:40;;;;;;;0.73;0.50;;;21.50;44.80;;;;;;5066801;28;20036;-61
2021/05/23 07:57:07;;;;;;;3.13;0.80;;;21.50;44.90;;;;;;5066105;28;20435;-60
2021/05/23 07:59:33;;;;;;;2.22;0.52;;;21.50;44.90;;;;;;5066275;28;20024;-60
2021/05/23 08:02:00;;;;;;;2.25;0.70;;;21.50;45.00;;;;;;5057071;28;20064;-61
2021/05/23 08:04:25;;;;;;;2.25;1.13;;;21.50;45.10;;;;;;5056463;28;20028;-57
2021/05/23 08:06:51;;;;;;;1.08;0.60;;;21.60;45.10;;;;;;5066083;28;20059;-61
2021/05/23 08:09:19;;;;;;;2.55;0.60;;;21.50;45.20;;;;;;5065206;28;20137;-62
2021/05/23 08:11:46;;;;;;;1.77;0.70;;;21.60;45.30;;;;;;5065921;28;20029;-61
2021/05/23 08:14:12;;;;;;;3.13;0.60;;;21.50;45.20;;;;;;5064848;28;20021;-62
2021/05/23 08:16:38;;;;;;;2.13;0.60;;;21.50;45.30;;;;;;5053660;28;20029;-61
2021/05/23 08:19:04;;;;;;;0.93;0.55;;;21.50;45.40;;;;;;5065805;28;20025;-61
2021/05/23 08:21:30;;;;;;;1.60;0.80;;;21.50;46.00;;;;;;5062616;28;20557;-62
2021/05/23 08:23:56;;;;;;;1.70;0.75;;;21.50;45.50;;;;;;5065476;28;20420;-61
2021/05/23 08:26:22;;;;;;;2.10;0.70;;;21.50;45.60;;;;;;5065834;28;20047;-60
2021/05/23 08:28:47;;;;;;;1.90;0.60;;;21.50;45.60;;;;;;5066092;28;20097;-61
2021/05/23 08:31:13;;;;;;;3.33;0.70;;;21.50;45.60;;;;;;5061838;28;20029;-60
2021/05/23 08:33:38;;;;;;;2.45;0.70;;;21.60;45.70;;;;;;5065279;28;20776;-61
2021/05/23 08:36:05;;;;;;;1.63;0.80;;;21.60;45.70;;;;;;5063008;28;20155;-60
2021/05/23 08:38:31;;;;;;;2.10;0.80;;;21.50;45.70;;;;;;5061706;28;20077;-60
2021/05/23 08:40:56;;;;;;;2.35;0.60;;;21.60;45.70;;;;;;5053411;28;20032;-61
2021/05/23 08:43:25;;;;;;;1.23;0.60;;;21.60;45.80;;;;;;5056986;28;20673;-61
2021/05/23 08:45:52;;;;;;;2.90;0.70;;;21.60;45.80;;;;;;5060263;28;20515;-59
2021/05/23 08:48:19;;;;;;;1.52;0.60;;;21.60;45.80;;;;;;5056504;28;20025;-61
2021/05/23 08:50:46;;;;;;;1.38;0.63;;;21.60;45.80;;;;;;5062712;28;20175;-59
2021/05/23 08:53:12;;;;;;;1.52;0.68;;;21.60;45.80;;;;;;5064140;28;20223;-58
2021/05/23 08:55:41;;;;;;;2.00;0.70;;;21.60;45.80;;;;;;5064538;28;20533;-60
2021/05/23 08:58:07;;;;;;;1.48;0.70;;;21.60;45.80;;;;;;5059426;28;20033;-60
2021/05/23 09:00:32;;;;;;;1.85;0.70;;;21.60;45.80;;;;;;5055690;28;20454;-61
2021/05/23 09:03:10;;;;;;;1.25;0.68;;;21.60;45.80;;;;;;5042185;28;20119;-56
2021/05/23 09:05:37;;;;;;;3.03;1.00;;;21.60;45.80;;;;;;5046780;28;20037;-61
2021/05/23 09:08:08;;;;;;;1.80;0.75;;;21.60;45.80;;;;;;5065135;28;20035;-59
2021/05/23 09:10:36;;;;;;;2.83;0.90;;;21.60;45.70;;;;;;5064296;28;20124;-61
2021/05/23 09:13:02;;;;;;;2.55;0.82;;;21.60;45.80;;;;;;5064195;28;20032;-62
2021/05/23 09:15:29;;;;;;;1.88;0.70;;;21.60;45.60;;;;;;5063124;28;20367;-61
2021/05/23 09:18:06;;;;;;;2.20;0.82;;;21.60;45.70;;;;;;5063059;28;20366;-61
2021/05/23 09:20:35;;;;;;;1.10;0.70;;;21.60;45.70;;;;;;5052406;28;20060;-60
2021/05/23 09:23:01;;;;;;;2.13;0.88;;;21.60;45.60;;;;;;5054477;28;20851;-61
2021/05/23 09:25:32;;;;;;;3.72;0.85;;;21.60;45.70;;;;;;5060703;28;20808;-62
2021/05/23 09:27:59;;;;;;;1.80;0.80;;;21.60;45.70;;;;;;5045705;28;20029;-55
2021/05/23 09:30:27;;;;;;;2.40;0.95;;;21.60;45.80;;;;;;5059989;28;20052;-58
2021/05/23 09:32:56;;;;;;;1.40;0.82;;;21.60;45.70;;;;;;5063087;28;20449;-58
2021/05/23 09:35:27;;;;;;;1.45;0.70;;;21.60;45.70;;;;;;5063453;28;20792;-56
2021/05/23 09:38:04;;;;;;;1.60;0.90;;;21.60;45.80;;;;;;5063584;28;20028;-54
2021/05/23 09:40:36;;;;;;;1.70;1.00;;;21.60;46.00;;;;;;5063185;28;20115;-56
2021/05/23 09:43:04;;;;;;;1.65;0.82;;;21.60;46.10;;;;;;5064236;28;20039;-53
2021/05/23 09:45:46;;;;;;;1.95;0.90;;;21.60;45.80;;;;;;5062248;28;20436;-57
2021/05/23 09:48:22;;;;;;;1.33;0.90;;;21.60;46.00;;;;;;5060755;28;20107;-60
2021/05/23 09:50:50;;;;;;;1.70;1.00;;;21.60;46.20;;;;;;5055619;28;20031;-56
2021/05/23 09:53:31;;;;;;;2.30;0.90;;;21.60;46.40;;;;;;5063157;28;20040;-53
2021/05/23 09:56:05;;;;;;;2.05;0.90;;;21.60;46.40;;;;;;5060335;28;20055;-56
2021/05/23 09:58:42;;;;;;;2.75;0.93;;;21.70;46.50;;;;;;5061271;28;20028;-54
2021/05/23 10:01:10;;;;;;;2.75;1.00;;;21.70;46.60;;;;;;5058120;28;20086;-52
2021/05/23 10:03:41;;;;;;;3.53;1.20;;;21.70;46.70;;;;;;5056582;28;20056;-62
2021/05/23 10:06:08;;;;;;;3.08;0.98;;;21.70;46.90;;;;;;5059222;28;20060;-57
2021/05/23 10:08:34;;;;;;;3.63;1.10;;;21.70;47.00;;;;;;5059889;28;20360;-53
2021/05/23 10:11:00;;;;;;;2.53;1.05;;;21.70;47.10;;;;;;5065741;28;20024;-59
2021/05/23 10:13:27;;;;;;;3.90;1.20;;;21.70;47.20;;;;;;5054854;28;20021;-54
2021/05/23 10:15:54;;;;;;;2.50;0.90;;;21.70;47.30;;;;;;5058300;28;20035;-58
2021/05/23 10:18:21;;;;;;;2.13;0.90;;;21.70;47.60;;;;;;5054649;28;20037;-56
2021/05/23 10:20:52;;;;;;;1.63;0.80;;;21.70;47.60;;;;;;5055085;28;20047;-54
2021/05/23 10:23:26;;;;;;;2.83;0.80;;;21.70;48.00;;;;;;5063640;28;20155;-60
2021/05/23 10:25:57;;;;;;;3.03;1.00;;;21.70;48.30;;;;;;5063979;28;20085;-57
2021/05/23 10:28:24;;;;;;;2.50;0.80;;;21.70;48.40;;;;;;5063919;28;20100;-56
2021/05/23 10:30:55;;;;;;;1.52;0.90;;;21.70;48.60;;;;;;5058402;28;20418;-57
2021/05/23 10:33:22;;;;;;;2.05;0.90;;;21.70;48.60;;;;;;5063935;28;20032;-54
2021/05/23 10:35:50;;;;;;;1.90;0.98;;;21.70;48.80;;;;;;5062617;28;20090;-59
2021/05/23 10:38:20;;;;;;;1.45;0.80;;;21.70;48.90;;;;;;5064231;28;20055;-57
2021/05/23 10:41:05;;;;;;;3.08;0.90;;;21.70;48.80;;;;;;5057562;28;21532;-58
2021/05/23 10:43:32;;;;;;;2.08;0.90;;;21.70;49.00;;;;;;5061822;28;20055;-55
2021/05/23 10:46:09;;;;;;;1.83;0.90;;;21.80;48.90;;;;;;5062547;28;20043;-55
2021/05/23 10:48:36;;;;;;;2.15;1.10;;;21.70;48.80;;;;;;5063163;28;20036;-55
2021/05/23 10:51:15;;;;;;;2.10;1.05;;;21.70;48.90;;;;;;5062382;28;20044;-59
2021/05/23 10:53:41;;;;;;;2.45;0.82;;;21.70;49.10;;;;;;5061139;28;20344;-54
2021/05/23 10:56:23;;;;;;;3.50;0.95;;;21.80;49.20;;;;;;5059333;28;20386;-55
2021/05/23 10:59:02;;;;;;;1.58;0.80;;;21.70;49.20;;;;;;5063307;28;20098;-58
2021/05/23 11:01:50;;;;;;;2.85;0.75;;;21.80;49.20;;;;;;5059065;28;20458;-55
2021/05/23 11:04:21;;;;;;;3.45;0.90;;;21.80;49.10;;;;;;5047679;28;20044;-57
2021/05/23 11:06:48;;;;;;;3.63;1.10;;;21.80;49.10;;;;;;5062992;28;20035;-53
2021/05/23 11:09:23;;;;;;;2.58;0.90;;;21.70;49.10;;;;;;5060105;28;20017;-57
2021/05/23 11:11:49;;;;;;;1.95;0.77;;;21.80;49.10;;;;;;5066326;28;20077;-53
2021/05/23 11:14:24;;;;;;;3.67;0.98;;;21.80;49.10;;;;;;5065201;28;20032;-55
2021/05/23 11:16:54;;;;;;;2.85;1.00;;;21.80;49.20;;;;;;5066309;28;20024;-53
2021/05/23 11:19:21;;;;;;;4.20;0.88;;;21.80;49.10;;;;;;5066694;28;20032;-58
2021/05/23 11:21:50;;;;;;;2.25;0.90;;;21.80;49.10;;;;;;5046580;28;20086;-57
2021/05/23 11:24:17;;;;;;;2.23;0.97;;;21.80;49.20;;;;;;5061077;28;20132;-57
2021/05/23 11:26:43;;;;;;;3.83;0.98;;;21.80;49.20;;;;;;5067759;28;20042;-58
2021/05/23 11:29:09;;;;;;;1.60;0.80;;;21.80;49.10;;;;;;5064061;28;20060;-59
2021/05/23 11:31:48;;;;;;;2.38;0.85;;;21.90;49.20;;;;;;5063498;28;20508;-57
2021/05/23 11:34:27;;;;;;;3.13;0.90;;;21.80;49.20;;;;;;5049142;28;20460;-60
2021/05/23 11:36:53;;;;;;;2.60;0.85;;;21.90;49.30;;;;;;5047138;28;20025;-59
2021/05/23 11:39:19;;;;;;;4.43;1.08;;;21.90;49.30;;;;;;5055655;28;20529;-59
2021/05/23 11:41:49;;;;;;;3.90;0.85;;;21.80;49.30;;;;;;5065605;28;20278;-57
2021/05/23 11:44:15;;;;;;;1.83;0.90;;;21.90;49.30;;;;;;5066536;28;20039;-57
2021/05/23 11:46:50;;;;;;;1.75;0.85;;;21.90;49.40;;;;;;5066129;28;20025;-55
2021/05/23 11:49:23;;;;;;;4.28;1.10;;;21.90;49.30;;;;;;5066738;28;20082;-55
2021/05/23 11:51:49;;;;;;;1.35;0.80;;;21.90;49.30;;;;;;5063359;28;20321;-57
2021/05/23 11:54:16;;;;;;;4.45;0.90;;;21.90;49.30;;;;;;5066542;28;20024;-60
2021/05/23 11:56:43;;;;;;;2.53;0.90;;;21.90;49.20;;;;;;5067179;28;20469;-57
2021/05/23 11:59:09;;;;;;;2.42;0.90;;;21.90;49.20;;;;;;5063624;28;20078;-61
2021/05/23 12:01:37;;;;;;;2.47;1.00;;;21.90;49.10;;;;;;5053639;28;20139;-54
2021/05/23 12:04:08;;;;;;;3.40;0.90;;;21.90;49.00;;;;;;5063549;28;20028;-55
2021/05/23 12:06:41;;;;;;;2.25;0.70;;;21.90;49.00;;;;;;5065125;28;20443;-55
2021/05/23 12:09:12;;;;;;;2.80;0.90;;;21.90;49.00;;;;;;5064622;28;20025;-54
2021/05/23 12:11:40;;;;;;;2.13;0.80;;;21.90;48.70;;;;;;5062651;28;20036;-58
2021/05/23 12:14:23;;;;;;;3.33;1.20;;;21.90;48.70;;;;;;5066615;28;20562;-56
2021/05/23 12:17:02;;;;;;;3.75;0.90;;;21.90;48.70;;;;;;5064159;28;20052;-52
2021/05/23 12:19:49;;;;;;;2.03;0.90;;;22.00;48.70;;;;;;5062611;28;20042;-56
2021/05/23 12:22:25;;;;;;;2.83;0.90;;;21.90;48.60;;;;;;5063307;28;20143;-56
2021/05/23 12:24:58;;;;;;;2.92;1.02;;;22.00;48.50;;;;;;5065827;28;20519;-55
2021/05/23 12:27:23;;;;;;;3.20;1.00;;;22.00;48.40;;;;;;5061547;28;20025;-55
2021/05/23 12:29:49;;;;;;;2.55;0.80;;;21.90;48.30;;;;;;5065607;28;20025;-52
2021/05/23 12:32:14;;;;;;;2.30;0.93;;;22.00;48.40;;;;;;5064285;28;20104;-54
2021/05/23 12:34:44;;;;;;;2.35;1.00;;;22.00;48.30;;;;;;5066093;28;20028;-51
2021/05/23 12:37:10;;;;;;;1.80;0.90;;;22.00;48.30;;;;;;5063343;28;20120;-56
2021/05/23 12:39:35;;;;;;;2.00;0.90;;;22.00;48.30;;;;;;5065185;28;20144;-55
2021/05/23 12:42:03;;;;;;;2.83;0.90;;;22.00;48.30;;;;;;5064954;28;20043;-57
2021/05/23 12:44:31;;;;;;;3.88;0.88;;;22.00;48.20;;;;;;5065948;28;20424;-55
2021/05/23 12:47:08;;;;;;;1.52;0.80;;;22.00;48.20;;;;;;5063387;28;20132;-55
2021/05/23 12:49:35;;;;;;;2.33;0.85;;;22.00;48.20;;;;;;5065027;28;20040;-60
2021/05/23 12:52:01;;;;;;;2.67;1.02;;;22.00;48.10;;;;;;5064847;28;20051;-58
2021/05/23 12:54:32;;;;;;;2.17;1.00;;;22.00;48.10;;;;;;5065048;28;20052;-52